createdAt,value
2022-09-12T00:01:45.112Z,100014.60
2022-09-12T00:06:45.401Z,100019.80
2022-09-12T00:11:47.898Z,100015.20
2022-09-12T00:16:50.751Z,100019.60
2022-09-12T00:21:49.722Z,100020.40
2022-09-12T00:26:48.378Z,100014.20
2022-09-12T00:31:47.202Z,100018.60
2022-09-12T00:36:46.454Z,100021.00
2022-09-12T00:41:46.097Z,100015.60
2022-09-12T00:46:48.696Z,100020.60
2022-09-12T00:51:54.084Z,100027.80
2022-09-12T00:56:58.564Z,100025.40
2022-09-12T01:01:58.151Z,100030.40
2022-09-12T01:06:59.944Z,100034.40
2022-09-12T01:12:00.321Z,100032.60
2022-09-12T01:16:59.584Z,100036.40
2022-09-12T01:22:22.249Z,100037.20
2022-09-12T01:27:48.111Z,100040.20
2022-09-12T01:33:04.773Z,100045.60
2022-09-12T01:38:30.121Z,100040.60
2022-09-12T01:43:39.924Z,100047.60
2022-09-12T01:48:46.184Z,100046.60
2022-09-12T01:53:52.615Z,100050.80
2022-09-12T01:58:59.764Z,100053.00
2022-09-12T02:04:09.142Z,100055.00
2022-09-12T02:09:14.138Z,100056.80
2022-09-12T02:14:20.875Z,100058.00
2022-09-12T02:19:25.417Z,100052.20
2022-09-12T02:24:31.379Z,100054.40
2022-09-12T02:29:31.135Z,100054.80
2022-09-12T02:34:46.201Z,100055.20
2022-09-12T02:39:45.746Z,100057.20
2022-09-12T02:44:45.774Z,100056.80
2022-09-12T02:49:44.233Z,100058.40
2022-09-12T02:54:44.629Z,100062.00
2022-09-12T02:59:46.637Z,100063.60
2022-09-12T03:05:22.300Z,100065.40
2022-09-12T03:10:30.533Z,100067.40
2022-09-12T03:15:47.317Z,100066.20
2022-09-12T03:20:57.419Z,100069.40
2022-09-12T03:26:05.155Z,100078.40
2022-09-12T03:31:16.150Z,100086.60
2022-09-12T03:36:21.441Z,100093.00
2022-09-12T03:41:21.474Z,100102.60
2022-09-12T03:46:20.161Z,100103.60
2022-09-12T03:51:18.906Z,100107.20
2022-09-12T03:56:18.224Z,100118.20
2022-09-12T04:01:19.824Z,100110.60
2022-09-12T04:06:22.743Z,100112.00
2022-09-12T04:11:24.173Z,100110.00
2022-09-12T04:16:23.156Z,100118.40
2022-09-12T04:21:23.301Z,100115.20
2022-09-12T04:26:23.097Z,100129.40
2022-09-12T04:31:25.867Z,100130.20
2022-09-12T04:36:25.863Z,100130.80
2022-09-12T04:41:28.553Z,100143.00
2022-09-12T04:46:29.085Z,100147.00
2022-09-12T04:51:31.126Z,100151.80
2022-09-12T04:56:31.716Z,100156.80
2022-09-12T05:01:31.530Z,100157.20
2022-09-12T05:06:34.772Z,100158.20
2022-09-12T05:12:02.613Z,100163.60
2022-09-12T05:16:59.932Z,100162.20
2022-09-12T05:22:01.199Z,100169.20
2022-09-12T05:27:00.721Z,100169.60
2022-09-12T05:32:00.222Z,100177.80
2022-09-12T05:36:59.435Z,100175.80
2022-09-12T05:41:58.062Z,100176.80
2022-09-12T05:46:57.719Z,100177.20
2022-09-12T05:51:57.665Z,100179.60
2022-09-12T05:56:57.218Z,100180.20
2022-09-12T06:01:55.939Z,100183.60
2022-09-12T06:06:55.687Z,100179.40
2022-09-12T06:11:56.089Z,100182.80
2022-09-12T06:16:54.871Z,100182.00
2022-09-12T06:21:53.675Z,100181.60
2022-09-12T06:26:53.874Z,100181.80
2022-09-12T06:31:54.282Z,100177.80
2022-09-12T06:36:54.020Z,100187.60
2022-09-12T06:41:54.407Z,100185.00
2022-09-12T06:47:05.305Z,100197.40
2022-09-12T06:52:04.621Z,100200.80
2022-09-12T06:57:04.198Z,100199.00
2022-09-12T07:02:04.056Z,100205.80
2022-09-12T07:07:03.265Z,100208.80
2022-09-12T07:12:04.692Z,100205.40
2022-09-12T07:17:03.309Z,100211.00
2022-09-12T07:22:02.146Z,100212.40
2022-09-12T07:27:00.974Z,100222.20
2022-09-12T07:32:00.719Z,100232.80
2022-09-12T07:37:00.016Z,100234.80
2022-09-12T07:42:00.484Z,100241.60
2022-09-12T07:47:00.467Z,100248.00
2022-09-12T07:51:59.440Z,100253.20
2022-09-12T07:56:57.991Z,100259.80
2022-09-12T08:01:57.118Z,100261.60
2022-09-12T08:06:55.828Z,100268.40
2022-09-12T08:11:55.007Z,100267.20
2022-09-12T08:16:54.513Z,100268.20
2022-09-12T08:21:53.744Z,100270.60
2022-09-12T08:26:52.333Z,100273.00
2022-09-12T08:31:56.549Z,100274.00
2022-09-12T08:36:56.490Z,100274.80
2022-09-12T08:42:04.959Z,100277.00
2022-09-12T08:47:26.957Z,100276.80
2022-09-12T08:52:32.384Z,100276.40
2022-09-12T08:57:31.591Z,100271.00
2022-09-12T09:02:54.638Z,100274.20
2022-09-12T09:08:17.704Z,100279.60
2022-09-12T09:13:52.585Z,100278.60
2022-09-12T09:18:54.680Z,100286.20
2022-09-12T09:24:01.319Z,100283.00
2022-09-12T09:29:09.381Z,100283.80
2022-09-12T09:34:19.830Z,100282.20
2022-09-12T09:39:35.323Z,100291.20
2022-09-12T09:44:34.864Z,100291.00
2022-09-12T09:49:37.721Z,100291.20
2022-09-12T09:54:44.320Z,100295.00
2022-09-12T09:59:43.290Z,100302.40
2022-09-12T10:04:56.586Z,100307.00
2022-09-12T10:10:19.095Z,100306.60
2022-09-12T10:15:26.340Z,100313.00
2022-09-12T10:20:43.054Z,100320.80
2022-09-12T10:25:42.822Z,100327.20
2022-09-12T10:30:52.591Z,100330.40
2022-09-12T10:35:56.187Z,100337.40
2022-09-12T10:41:03.716Z,100331.20
2022-09-12T10:46:25.218Z,100337.60
2022-09-12T10:51:32.797Z,100344.60
2022-09-12T10:56:36.322Z,100344.80
2022-09-12T11:01:44.478Z,100344.40
2022-09-12T11:07:00.087Z,100356.60
2022-09-12T11:12:17.590Z,100356.60
2022-09-12T11:17:35.667Z,100354.60
2022-09-12T11:22:58.596Z,100355.80
2022-09-12T11:28:22.027Z,100358.00
2022-09-12T11:33:43.123Z,100363.20
2022-09-12T11:39:07.295Z,100358.60
2022-09-12T11:44:17.333Z,100362.60
2022-09-12T11:49:28.835Z,100361.80
2022-09-12T11:54:35.135Z,100363.40
2022-09-12T11:59:46.359Z,100368.00
2022-09-12T12:05:16.813Z,100364.00
2022-09-12T12:10:37.354Z,100364.60
2022-09-12T12:15:38.553Z,100367.20
2022-09-12T12:20:38.913Z,100369.40
2022-09-12T12:25:57.975Z,100373.20
2022-09-12T12:31:07.361Z,100368.40
2022-09-12T12:36:12.701Z,100372.80
2022-09-12T12:41:47.607Z,100377.40
2022-09-12T12:47:20.708Z,100380.00
2022-09-12T12:52:23.291Z,100375.60
2022-09-12T12:57:31.335Z,100375.40
2022-09-12T13:02:37.051Z,100380.80
2022-09-12T13:07:41.539Z,100377.20
2022-09-12T13:12:49.232Z,100380.20
2022-09-12T13:17:49.703Z,100381.40
2022-09-12T13:22:52.077Z,100382.80
2022-09-12T13:28:06.429Z,100379.40
2022-09-12T13:33:25.052Z,100382.80
2022-09-12T13:38:39.640Z,100379.80
2022-09-12T13:43:47.069Z,100383.60
2022-09-12T13:48:49.124Z,100383.20
2022-09-12T13:53:50.935Z,100388.20
2022-09-12T13:58:58.928Z,100377.60
2022-09-12T14:04:17.089Z,100375.60
2022-09-12T14:09:33.419Z,100375.60
2022-09-12T14:14:37.392Z,100378.40
2022-09-12T14:19:36.705Z,100387.00
2022-09-12T14:24:36.241Z,100382.40
2022-09-12T14:29:35.739Z,100379.00
2022-09-12T14:34:34.711Z,100382.20
2022-09-12T14:39:40.102Z,100386.80
2022-09-12T14:44:41.021Z,100386.60
2022-09-12T14:49:41.209Z,100388.00
2022-09-12T14:54:59.578Z,100386.40
2022-09-12T15:00:21.070Z,100391.60
2022-09-12T15:05:49.852Z,100395.40
2022-09-12T15:10:49.539Z,100391.80
2022-09-12T15:15:51.352Z,100393.40
2022-09-12T15:20:53.070Z,100397.80
2022-09-12T15:25:52.436Z,100398.80
2022-09-12T15:30:54.386Z,100403.40
2022-09-12T15:35:55.126Z,100406.20
2022-09-12T15:40:57.598Z,100410.60
2022-09-12T15:45:59.523Z,100410.20
2022-09-12T15:51:01.661Z,100417.60
2022-09-12T15:56:00.928Z,100421.80
2022-09-12T16:00:59.738Z,100422.00
2022-09-12T16:06:03.529Z,100424.20
2022-09-12T16:11:08.898Z,100416.60
2022-09-12T16:16:08.438Z,100417.20
2022-09-12T16:21:12.765Z,100417.00
2022-09-12T16:26:15.904Z,100419.20
2022-09-12T16:31:17.640Z,100420.80
2022-09-12T16:36:20.221Z,100423.40
2022-09-12T16:41:25.948Z,100424.20
2022-09-12T16:46:29.058Z,100421.00
2022-09-12T16:51:37.292Z,100422.60
2022-09-12T16:56:37.429Z,100415.60
2022-09-12T17:01:36.787Z,100411.80
2022-09-12T17:06:37.926Z,100408.00
2022-09-12T17:11:41.049Z,100406.00
2022-09-12T17:16:45.922Z,100407.40
2022-09-12T17:21:49.011Z,100413.20
2022-09-12T17:26:49.412Z,100417.20
2022-09-12T17:31:49.517Z,100415.80
2022-09-12T17:36:49.298Z,100417.20
2022-09-12T17:41:51.033Z,100417.00
2022-09-12T17:46:49.912Z,100415.20
2022-09-12T17:51:50.779Z,100417.60
2022-09-12T17:56:52.285Z,100423.60
2022-09-12T18:02:11.122Z,100419.00
2022-09-12T18:07:11.261Z,100421.00
2022-09-12T18:12:11.218Z,100421.20
2022-09-12T18:17:11.658Z,100426.20
2022-09-12T18:22:11.472Z,100424.60
2022-09-12T18:27:10.938Z,100426.00
2022-09-12T18:32:11.244Z,100421.20
2022-09-12T18:37:11.687Z,100430.60
2022-09-12T18:42:11.274Z,100432.00
2022-09-12T18:47:10.602Z,100427.00
2022-09-12T18:52:10.287Z,100429.40
2022-09-12T18:57:11.292Z,100419.40
2022-09-12T19:02:15.085Z,100415.40
2022-09-12T19:07:17.222Z,100413.60
2022-09-12T19:12:16.952Z,100417.40
2022-09-12T19:17:17.795Z,100425.00
2022-09-12T19:22:17.449Z,100422.40
2022-09-12T19:27:18.265Z,100425.00
2022-09-12T19:32:16.774Z,100427.80
2022-09-12T19:37:15.805Z,100418.00
2022-09-12T19:42:15.264Z,100414.00
2022-09-12T19:47:14.870Z,100414.40
2022-09-12T19:52:17.429Z,100413.40
2022-09-12T19:57:16.364Z,100413.40
2022-09-12T20:02:16.280Z,100405.20
2022-09-12T20:07:15.794Z,100403.20
2022-09-12T20:12:15.120Z,100403.60
2022-09-12T20:17:14.255Z,100401.20
2022-09-12T20:22:14.561Z,100405.40
2022-09-12T20:27:15.821Z,100396.60
2022-09-12T20:32:18.616Z,100399.60
2022-09-12T20:37:17.272Z,100391.60
2022-09-12T20:42:16.161Z,100397.20
2022-09-12T20:47:15.533Z,100401.20
2022-09-12T20:52:14.133Z,100395.80
2022-09-12T20:57:13.452Z,100398.80
2022-09-12T21:02:17.011Z,100395.40
2022-09-12T21:07:20.063Z,100393.40
2022-09-12T21:12:18.734Z,100388.80
2022-09-12T21:17:17.834Z,100388.00
2022-09-12T21:22:17.217Z,100390.00
2022-09-12T21:27:16.784Z,100384.80
2022-09-12T21:32:15.491Z,100389.60
2022-09-12T21:37:14.275Z,100393.80
2022-09-12T21:42:14.924Z,100392.40
2022-09-12T21:47:14.275Z,100385.20
2022-09-12T21:52:13.754Z,100384.60
2022-09-12T21:57:12.169Z,100387.00
2022-09-12T22:02:13.075Z,100378.40
2022-09-12T22:07:14.237Z,100380.00
2022-09-12T22:12:13.910Z,100374.20
2022-09-12T22:17:13.551Z,100370.60
2022-09-12T22:22:26.207Z,100371.00
2022-09-12T22:27:24.661Z,100373.60
2022-09-12T22:32:24.187Z,100368.60
2022-09-12T22:37:23.066Z,100364.80
2022-09-12T22:42:22.562Z,100364.00
2022-09-12T22:47:21.644Z,100367.20
2022-09-12T22:52:21.062Z,100370.80
2022-09-12T22:57:19.667Z,100362.00
2022-09-12T23:02:18.468Z,100351.20
2022-09-12T23:07:17.929Z,100348.60
2022-09-12T23:12:17.300Z,100351.00
2022-09-12T23:17:15.784Z,100347.80
2022-09-12T23:22:14.387Z,100342.40
2022-09-12T23:27:12.877Z,100337.80
2022-09-12T23:32:11.907Z,100333.80
2022-09-12T23:37:10.169Z,100327.00
2022-09-12T23:42:09.496Z,100320.40
2022-09-12T23:47:08.449Z,100312.00
2022-09-12T23:52:08.726Z,100311.20
2022-09-12T23:57:07.944Z,100318.40
